La Blanca, Texas
Current Conditions -  °F | °C
As of 8:15 PM on Saturday 20 Dec 2014 (Local Time) from KT65 Reporting Station
Overcast Overcast  
Wind Chill: 13°   Ceiling: 1500
Heat Index: 13°   Visibility: 7mi
Dew Point: 10°   Wind: 8mph
Humidity: 81%   Direction: 360°N
Pressure: 30.14"   Gusts: NA
Location:  26.29°N, 98.04°W
Report Text: KT65 210215Z AUTO 36007KT 7SM OVC015 13/10 A3014 RMK AO2 T01320100
Loading
Personal Weather Stations






























Interactive Weather Map New forecast layout! Learn more

10-Day Weather Forecast

Advertisements
Track Severe Weather on mobile